Time;durP1;ratioP1;P1;durP2;ratioP2;P2;SDS_P1;SDS_P2;PMS_P1;PMS_P2;Temp;Humidity;BMP_temperature;BMP_pressure;BME280_temperature;BME280_humidity;BME280_pressure;Samples;Min_cycle;Max_cycle;Signal;HPM_P1;HPM_P2
2021/01/05 00:01:27;;;;;;;13.60;12.20;;;;;;;0.11;100.00;97454.38;4992783;28;20474;-68
2021/01/05 00:03:54;;;;;;;15.40;12.87;;;;;;;0.21;100.00;97449.34;4989277;28;20228;-68
2021/01/05 00:06:22;;;;;;;14.23;12.73;;;;;;;0.23;100.00;97444.00;4991226;28;20560;-68
2021/01/05 00:08:49;;;;;;;15.53;12.60;;;;;;;0.20;100.00;97455.50;4990929;28;20440;-68
2021/01/05 00:11:16;;;;;;;14.93;12.70;;;;;;;0.10;100.00;97449.28;4980924;28;20443;-68
2021/01/05 00:13:43;;;;;;;12.87;11.43;;;;;;;0.06;100.00;97445.22;4975455;28;20496;-68
2021/01/05 00:16:09;;;;;;;13.43;12.03;;;;;;;0.08;100.00;97445.94;4978711;28;20714;-68
2021/01/05 00:18:37;;;;;;;15.83;12.40;;;;;;;0.14;100.00;97450.72;4979519;28;20889;-68
2021/01/05 00:21:04;;;;;;;12.67;11.33;;;;;;;0.10;100.00;97444.06;4982125;28;20701;-68
2021/01/05 00:23:32;;;;;;;14.80;12.63;;;;;;;0.03;100.00;97448.06;4988103;28;20237;-68
2021/01/05 00:25:58;;;;;;;14.00;12.47;;;;;;;-0.04;100.00;97443.31;4989248;28;20210;-68
2021/01/05 00:28:26;;;;;;;14.57;11.97;;;;;;;-0.03;100.00;97433.69;4982986;28;20218;-68
2021/01/05 00:30:53;;;;;;;14.27;12.77;;;;;;;-0.11;100.00;97436.88;4989509;28;20206;-69
2021/01/05 00:33:20;;;;;;;15.80;12.73;;;;;;;-0.07;100.00;97443.53;4975539;28;20698;-68
2021/01/05 00:35:47;;;;;;;14.70;12.93;;;;;;;0.06;100.00;97440.88;4974515;28;20218;-69
2021/01/05 00:38:14;;;;;;;15.97;12.00;;;;;;;-0.01;100.00;97450.88;4973035;28;20219;-68
2021/01/05 00:40:41;;;;;;;14.93;12.83;;;;;;;-0.02;100.00;97449.22;4975351;28;20212;-68
2021/01/05 00:43:08;;;;;;;15.57;12.87;;;;;;;-0.05;100.00;97446.84;4975695;28;20226;-68
2021/01/05 00:45:38;;;;;;;13.90;12.37;;;;;;;0.00;100.00;97446.53;4974205;28;20236;-68
2021/01/05 00:48:06;;;;;;;13.87;12.30;;;;;;;-0.01;100.00;97447.44;4983423;28;20209;-68
2021/01/05 00:50:33;;;;;;;12.80;11.37;;;;;;;-0.04;100.00;97450.25;4975156;28;20213;-68
2021/01/05 00:53:01;;;;;;;14.07;11.97;;;;;;;-0.01;100.00;97458.69;4984035;28;20224;-68
2021/01/05 00:55:28;;;;;;;14.43;12.93;;;;;;;-0.08;100.00;97459.25;4993038;28;20444;-68
2021/01/05 00:57:55;;;;;;;14.70;12.17;;;;;;;-0.03;100.00;97451.94;4990362;28;20616;-68
2021/01/05 01:00:24;;;;;;;15.03;12.13;;;;;;;-0.04;100.00;97456.31;4985345;28;20208;-68
2021/01/05 01:02:53;;;;;;;14.00;11.93;;;;;;;-0.21;100.00;97461.91;4982667;28;20240;-68
2021/01/05 01:05:21;;;;;;;16.60;13.23;;;;;;;-0.16;100.00;97458.03;4974784;28;20677;-68
2021/01/05 01:07:48;;;;;;;13.57;12.33;;;;;;;-0.04;100.00;97458.94;4997234;28;20212;-68
2021/01/05 01:10:15;;;;;;;13.83;12.43;;;;;;;-0.13;100.00;97462.19;4987018;28;20210;-68
2021/01/05 01:12:42;;;;;;;15.10;13.33;;;;;;;-0.30;100.00;97458.19;4981338;28;20712;-68
2021/01/05 01:15:10;;;;;;;14.47;13.03;;;;;;;-0.37;100.00;97460.38;4977808;28;20790;-68
2021/01/05 01:17:37;;;;;;;14.20;12.73;;;;;;;-0.22;100.00;97460.22;4972063;28;20206;-68
2021/01/05 01:20:06;;;;;;;13.23;11.83;;;;;;;-0.28;100.00;97464.13;4977957;28;20198;-69
2021/01/05 01:22:33;;;;;;;14.33;12.17;;;;;;;-0.14;100.00;97465.75;4985707;28;20221;-69
2021/01/05 01:25:00;;;;;;;15.63;12.40;;;;;;;-0.19;100.00;97463.47;4983009;28;20222;-69
2021/01/05 01:27:29;;;;;;;13.83;12.33;;;;;;;-0.22;100.00;97465.44;4973574;28;20261;-69
2021/01/05 01:29:55;;;;;;;12.37;11.07;;;;;;;-0.26;100.00;97459.63;4986215;28;20216;-68
2021/01/05 01:32:23;;;;;;;14.37;12.53;;;;;;;-0.23;100.00;97459.41;4988569;28;20699;-68
2021/01/05 01:34:50;;;;;;;14.30;12.83;;;;;;;-0.22;100.00;97466.28;4987665;28;20229;-69
2021/01/05 01:37:18;;;;;;;14.53;12.43;;;;;;;-0.30;100.00;97463.41;4993104;28;20214;-68
2021/01/05 01:39:46;;;;;;;15.20;13.43;;;;;;;-0.34;100.00;97465.38;4980055;28;20217;-68
2021/01/05 01:42:16;;;;;;;15.73;12.83;;;;;;;-0.33;100.00;97454.03;4978842;28;20792;-67
2021/01/05 01:44:45;;;;;;;15.10;13.47;;;;;;;-0.28;100.00;97460.66;4979225;28;20761;-68
2021/01/05 01:47:13;;;;;;;14.00;12.60;;;;;;;-0.38;100.00;97458.72;4976861;28;20456;-68
2021/01/05 01:49:44;;;;;;;14.47;12.83;;;;;;;-0.25;100.00;97456.09;4981429;28;20209;-67
2021/01/05 01:52:11;;;;;;;13.87;12.33;;;;;;;-0.32;100.00;97452.25;4978604;28;20199;-68
2021/01/05 01:55:05;;;;;;;13.33;11.90;;;;;;;-0.15;100.00;97440.66;4986698;28;20343;-68
2021/01/05 01:58:10;;;;;;;14.70;11.83;;;;;;;-0.21;100.00;97448.88;4983643;28;20197;-68
2021/01/05 02:00:47;;;;;;;13.57;12.23;;;;;;;-0.32;100.00;97442.66;4927149;28;20219;-68
2021/01/05 02:03:41;;;;;;;14.63;13.10;;;;;;;-0.15;100.00;97441.47;4983602;28;20236;-67
2021/01/05 02:06:15;;;;;;;15.47;12.40;;;;;;;-0.10;100.00;97448.97;4950602;28;20530;-68
2021/01/05 02:08:52;;;;;;;13.60;11.87;;;;;;;-0.10;100.00;97441.13;4989642;28;20196;-68
2021/01/05 02:11:36;;;;;;;13.37;11.70;;;;;;;-0.23;100.00;97449.00;4986080;28;20208;-67
2021/01/05 02:14:13;;;;;;;13.00;11.60;;;;;;;-0.11;100.00;97444.69;4984374;28;20225;-68
2021/01/05 02:17:01;;;;;;;14.87;12.13;;;;;;;-0.17;100.00;97439.94;4980610;28;20201;-68
2021/01/05 02:19:32;;;;;;;11.53;10.43;;;;;;;-0.07;100.00;97438.31;4983350;28;20785;-68
2021/01/05 02:22:05;;;;;;;12.93;11.63;;;;;;;-0.10;100.00;97443.75;4991582;28;20456;-68
2021/01/05 02:24:40;;;;;;;13.23;11.83;;;;;;;-0.18;100.00;97436.47;4991773;28;20237;-68
2021/01/05 02:27:10;;;;;;;13.37;11.50;;;;;;;-0.21;100.00;97435.84;4978932;28;20216;-67
2021/01/05 02:29:41;;;;;;;13.40;11.97;;;;;;;-0.20;100.00;97432.31;4988292;28;20877;-67
2021/01/05 02:32:19;;;;;;;15.63;12.73;;;;;;;-0.28;100.00;97435.47;4984610;28;20290;-68
2021/01/05 02:35:12;;;;;;;14.43;12.90;;;;;;;-0.32;100.00;97434.84;4982185;28;20225;-68
2021/01/05 02:37:46;;;;;;;15.47;12.33;;;;;;;-0.20;100.00;97427.09;4954924;28;20471;-67
2021/01/05 02:40:28;;;;;;;14.20;12.70;;;;;;;-0.40;100.00;97429.38;4976784;28;20697;-67
2021/01/05 02:43:11;;;;;;;14.43;12.97;;;;;;;-0.27;100.00;97434.53;4981565;28;20492;-68
2021/01/05 02:45:41;;;;;;;13.47;12.07;;;;;;;-0.19;100.00;97429.59;4973625;28;20213;-68
2021/01/05 02:48:23;;;;;;;15.07;13.30;;;;;;;-0.27;100.00;97418.91;4981319;28;20205;-67
2021/01/05 02:51:15;;;;;;;13.60;12.20;;;;;;;-0.32;100.00;97423.63;4983580;28;20205;-67
2021/01/05 02:54:01;;;;;;;15.57;12.50;;;;;;;-0.38;100.00;97424.88;4976252;28;20229;-67
2021/01/05 02:57:07;;;;;;;14.50;12.00;;;;;;;-0.31;100.00;97409.66;4985466;28;20209;-68
2021/01/05 02:59:59;;;;;;;14.27;12.87;;;;;;;-0.30;100.00;97419.13;4979859;28;20216;-68
2021/01/05 03:02:43;;;;;;;16.80;12.57;;;;;;;-0.21;100.00;97415.00;4982648;28;20656;-68
2021/01/05 03:05:10;;;;;;;14.63;12.57;;;;;;;-0.23;100.00;97417.75;4984356;28;20212;-68
2021/01/05 03:07:37;;;;;;;13.63;12.10;;;;;;;-0.10;100.00;97422.06;4981147;28;20240;-68
2021/01/05 03:10:36;;;;;;;14.27;11.73;;;;;;;-0.13;100.00;97424.88;4978504;28;20209;-69
2021/01/05 03:13:20;;;;;;;13.50;12.10;;;;;;;-0.12;100.00;97430.00;4974580;28;20225;-67
2021/01/05 03:15:49;;;;;;;14.73;12.57;;;;;;;-0.16;100.00;97415.53;4980740;28;20213;-68
2021/01/05 03:18:24;;;;;;;16.93;12.43;;;;;;;-0.19;100.00;97418.34;4987095;28;20551;-68
2021/01/05 03:20:56;;;;;;;14.73;13.23;;;;;;;-0.05;100.00;97422.56;4980487;28;20216;-69
2021/01/05 03:23:23;;;;;;;13.33;11.93;;;;;;;-0.18;100.00;97427.84;4978657;28;20464;-68
2021/01/05 03:25:51;;;;;;;17.20;12.40;;;;;;;-0.25;100.00;97424.00;4983755;28;20288;-67
2021/01/05 03:28:21;;;;;;;13.07;11.63;;;;;;;-0.19;100.00;97420.94;4983121;28;20444;-68
2021/01/05 03:30:50;;;;;;;15.60;12.97;;;;;;;-0.06;100.00;97419.13;4981975;28;20205;-68
2021/01/05 03:33:17;;;;;;;13.60;12.30;;;;;;;-0.06;100.00;97420.88;4979151;28;20245;-68
2021/01/05 03:35:44;;;;;;;12.50;11.27;;;;;;;-0.09;100.00;97421.13;4982323;28;20210;-67
2021/01/05 03:38:12;;;;;;;13.47;11.70;;;;;;;-0.12;100.00;97419.59;4978125;28;20535;-68
2021/01/05 03:40:39;;;;;;;13.03;11.63;;;;;;;-0.07;100.00;97419.22;4981757;28;20233;-67
2021/01/05 03:43:06;;;;;;;14.27;12.60;;;;;;;-0.16;100.00;97418.16;4976504;28;20233;-68
2021/01/05 03:45:33;;;;;;;14.07;12.57;;;;;;;-0.12;100.00;97418.72;4982549;28;20559;-68
2021/01/05 03:48:01;;;;;;;17.93;12.27;;;;;;;-0.15;100.00;97415.41;4983096;28;20208;-68
2021/01/05 03:50:28;;;;;;;14.30;12.80;;;;;;;-0.27;100.00;97416.31;4978239;28;20210;-68
2021/01/05 03:52:55;;;;;;;15.13;11.97;;;;;;;-0.30;100.00;97417.34;4972561;28;20468;-68
2021/01/05 03:55:21;;;;;;;13.50;12.10;;;;;;;-0.15;100.00;97418.00;4977492;28;20201;-68
2021/01/05 03:57:48;;;;;;;14.13;12.40;;;;;;;-0.07;100.00;97420.06;4978183;28;20447;-68
2021/01/05 04:00:24;;;;;;;14.43;12.37;;;;;;;-0.08;100.00;97414.97;4978257;28;20229;-69
2021/01/05 04:02:51;;;;;;;12.70;11.30;;;;;;;-0.10;100.00;97419.47;4981653;28;20303;-68
2021/01/05 04:05:19;;;;;;;14.67;12.60;;;;;;;-0.13;100.00;97417.91;4989579;28;20448;-68
2021/01/05 04:07:46;;;;;;;14.07;11.40;;;;;;;-0.11;100.00;97421.25;4978536;28;20209;-68
2021/01/05 04:10:14;;;;;;;13.07;11.70;;;;;;;-0.11;100.00;97416.03;4978447;28;20533;-68
2021/01/05 04:12:41;;;;;;;12.93;11.63;;;;;;;-0.08;100.00;97420.19;4980230;28;20206;-68
2021/01/05 04:15:11;;;;;;;14.83;12.70;;;;;;;-0.10;100.00;97411.63;4978708;28;20214;-68
2021/01/05 04:17:38;;;;;;;13.10;11.80;;;;;;;-0.09;100.00;97411.53;4976030;28;20210;-68
2021/01/05 04:20:06;;;;;;;16.73;13.63;;;;;;;-0.15;100.00;97412.00;4973871;28;20205;-68
2021/01/05 04:22:34;;;;;;;19.70;13.10;;;;;;;-0.15;100.00;97410.19;4978776;28;20247;-68
2021/01/05 04:25:01;;;;;;;15.77;12.77;;;;;;;-0.13;100.00;97407.50;4981441;28;20441;-68
2021/01/05 04:27:28;;;;;;;15.00;12.23;;;;;;;-0.08;100.00;97409.75;4975747;28;21269;-68
2021/01/05 04:29:55;;;;;;;14.80;12.50;;;;;;;-0.17;100.00;97411.28;4990181;28;20622;-68
2021/01/05 04:32:22;;;;;;;17.67;13.90;;;;;;;-0.07;100.00;97414.88;4984766;28;20241;-68
2021/01/05 04:34:49;;;;;;;16.23;13.67;;;;;;;-0.19;100.00;97419.19;4975896;28;20256;-68
2021/01/05 04:37:16;;;;;;;14.37;12.80;;;;;;;-0.02;100.00;97411.91;4980992;28;20209;-68
2021/01/05 04:39:44;;;;;;;18.37;13.67;;;;;;;-0.05;100.00;97415.59;4975752;28;20519;-68
2021/01/05 04:42:15;;;;;;;16.97;13.23;;;;;;;0.06;100.00;97420.03;4974867;28;20235;-68
2021/01/05 04:44:53;;;;;;;16.27;13.03;;;;;;;0.13;100.00;97418.63;4986544;28;20229;-67
2021/01/05 04:47:26;;;;;;;15.00;12.53;;;;;;;-0.02;100.00;97412.75;4982531;28;20217;-69
2021/01/05 04:50:14;;;;;;;15.30;13.43;;;;;;;0.05;100.00;97427.94;4977403;28;20202;-67
2021/01/05 04:52:55;;;;;;;15.87;12.53;;;;;;;0.10;100.00;97428.44;4975779;28;20485;-65
2021/01/05 04:55:41;;;;;;;14.53;12.93;;;;;;;0.16;100.00;97437.59;4986865;28;20237;-69
2021/01/05 04:58:12;;;;;;;14.87;12.83;;;;;;;0.14;100.00;97435.06;4986194;28;20205;-67
2021/01/05 05:00:41;;;;;;;14.13;12.57;;;;;;;-0.03;100.00;97431.94;4979832;28;20385;-66
2021/01/05 05:03:17;;;;;;;14.90;12.73;;;;;;;0.12;100.00;97437.81;4978553;28;20237;-67
2021/01/05 05:05:56;;;;;;;13.60;12.20;;;;;;;0.16;100.00;97437.59;4977804;28;20214;-67
2021/01/05 05:08:46;;;;;;;15.63;13.37;;;;;;;0.06;100.00;97435.66;4982470;28;20201;-67
2021/01/05 05:11:16;;;;;;;14.57;12.77;;;;;;;0.10;100.00;97437.09;4982007;28;20219;-65
2021/01/05 05:13:49;;;;;;;15.40;12.70;;;;;;;0.19;100.00;97443.41;4972531;28;20222;-65
2021/01/05 05:16:32;;;;;;;13.33;11.93;;;;;;;0.14;100.00;97442.88;4977623;28;20241;-64
2021/01/05 05:19:06;;;;;;;13.37;11.57;;;;;;;0.21;100.00;97448.50;4979420;28;20218;-65
2021/01/05 05:21:37;;;;;;;16.23;13.37;;;;;;;0.14;100.00;97448.94;4985492;28;20473;-65
2021/01/05 05:24:23;;;;;;;13.57;12.20;;;;;;;0.22;100.00;97453.63;4974740;28;20240;-65
2021/01/05 05:26:56;;;;;;;17.03;13.40;;;;;;;0.14;100.00;97456.78;4976854;28;20671;-64
2021/01/05 05:29:36;;;;;;;13.30;11.90;;;;;;;0.20;100.00;97449.44;4980556;28;20221;-65
2021/01/05 05:32:10;;;;;;;14.80;12.47;;;;;;;0.33;100.00;97457.19;4974754;28;21023;-65
2021/01/05 05:34:44;;;;;;;14.57;12.13;;;;;;;0.41;100.00;97455.69;4976461;28;20225;-66
2021/01/05 05:37:19;;;;;;;15.23;12.83;;;;;;;0.39;100.00;97451.53;4975820;28;20232;-64
2021/01/05 05:40:07;;;;;;;17.40;12.57;;;;;;;0.25;100.00;97452.53;4980506;28;20572;-65
2021/01/05 05:43:02;;;;;;;19.27;13.63;;;;;;;0.30;100.00;97465.25;4976265;28;20224;-65
2021/01/05 05:45:31;;;;;;;15.33;13.40;;;;;;;0.37;100.00;97459.44;4974480;28;20560;-65
2021/01/05 05:48:02;;;;;;;16.80;15.00;;;;;;;0.47;100.00;97459.59;4978488;28;20582;-65
2021/01/05 05:50:35;;;;;;;14.30;12.20;;;;;;;0.53;100.00;97460.94;4980569;28;20514;-64
2021/01/05 05:53:06;;;;;;;15.57;13.10;;;;;;;0.57;100.00;97462.38;4983050;28;20614;-64
2021/01/05 05:55:42;;;;;;;15.13;12.03;;;;;;;0.59;100.00;97464.88;4981683;28;20668;-64
2021/01/05 05:58:12;;;;;;;14.97;12.40;;;;;;;0.63;100.00;97461.91;4980915;28;20201;-64
2021/01/05 06:00:41;;;;;;;13.23;11.10;;;;;;;0.52;100.00;97472.31;4977655;28;20214;-64
2021/01/05 06:03:12;;;;;;;14.27;11.50;;;;;;;0.59;100.00;97462.28;4982471;28;20247;-65
2021/01/05 06:05:39;;;;;;;12.83;10.83;;;;;;;0.62;100.00;97462.03;4982253;28;20210;-65
2021/01/05 06:08:08;;;;;;;15.57;11.37;;;;;;;0.55;100.00;97465.06;4978434;28;20714;-66
2021/01/05 06:10:35;;;;;;;11.97;10.63;;;;;;;0.51;100.00;97465.44;4982630;28;20484;-65
2021/01/05 06:13:03;;;;;;;11.53;10.27;;;;;;;0.61;100.00;97461.19;4987178;28;20228;-68
2021/01/05 06:15:33;;;;;;;11.73;10.27;;;;;;;0.48;100.00;97453.44;4973288;28;20202;-67
2021/01/05 06:18:01;;;;;;;13.77;12.40;;;;;;;0.50;100.00;97458.56;4983692;28;20884;-68
2021/01/05 06:20:28;;;;;;;67.10;47.87;;;;;;;0.54;100.00;97468.63;4984065;28;20233;-67
2021/01/05 06:22:55;;;;;;;22.10;19.90;;;;;;;0.48;100.00;97465.66;4983224;28;20244;-67
2021/01/05 06:25:23;;;;;;;16.20;14.70;;;;;;;0.63;100.00;97471.53;4980392;28;20737;-67
2021/01/05 06:27:50;;;;;;;12.17;10.97;;;;;;;0.59;100.00;97473.50;4987591;28;20210;-68
2021/01/05 06:30:18;;;;;;;14.13;12.60;;;;;;;0.59;100.00;97478.72;4982518;28;20611;-67
2021/01/05 06:32:46;;;;;;;13.23;11.30;;;;;;;0.67;100.00;97480.78;4986561;28;20497;-68
2021/01/05 06:35:14;;;;;;;13.03;11.73;;;;;;;0.54;100.00;97486.88;4985320;28;20209;-68
2021/01/05 06:37:42;;;;;;;16.27;11.47;;;;;;;0.57;100.00;97489.28;4981531;28;20209;-68
2021/01/05 06:40:10;;;;;;;11.77;10.57;;;;;;;0.72;100.00;97483.88;4985640;28;20969;-68
2021/01/05 06:42:37;;;;;;;13.23;11.07;;;;;;;0.64;100.00;97478.41;4982484;28;20414;-70
2021/01/05 06:45:05;;;;;;;12.17;10.83;;;;;;;0.73;100.00;97477.72;4982463;28;20210;-67
2021/01/05 06:47:32;;;;;;;12.80;10.83;;;;;;;0.77;100.00;97493.97;4981739;28;20201;-67
2021/01/05 06:50:00;;;;;;;12.23;9.97;;;;;;;0.68;100.00;97490.28;4980790;28;20406;-67
2021/01/05 06:52:27;;;;;;;14.30;11.70;;;;;;;0.69;100.00;97494.53;4980968;28;20590;-68
2021/01/05 06:54:54;;;;;;;12.03;10.83;;;;;;;0.56;100.00;97498.03;4979651;28;20324;-67
2021/01/05 06:57:21;;;;;;;13.23;11.87;;;;;;;0.61;100.00;97492.50;4981297;28;20205;-67
2021/01/05 06:59:49;;;;;;;12.87;11.50;;;;;;;0.80;100.00;97499.78;4982010;28;20682;-68
2021/01/05 07:02:16;;;;;;;13.07;11.67;;;;;;;0.81;100.00;97495.41;4979168;28;20289;-68
2021/01/05 07:04:43;;;;;;;14.33;11.13;;;;;;;0.81;100.00;97495.41;4975041;28;20241;-67
2021/01/05 07:07:11;;;;;;;12.47;11.17;;;;;;;0.71;100.00;97498.69;4981996;28;20206;-68
2021/01/05 07:09:38;;;;;;;16.00;11.67;;;;;;;0.80;100.00;97489.34;4980572;28;20658;-66
2021/01/05 07:12:05;;;;;;;11.47;10.20;;;;;;;0.84;100.00;97500.38;4986429;28;20201;-67
2021/01/05 07:14:32;;;;;;;13.07;11.30;;;;;;;0.87;100.00;97497.56;4978978;28;20222;-68
2021/01/05 07:16:59;;;;;;;17.47;14.33;;;;;;;0.85;100.00;97505.47;4980939;28;20244;-68
2021/01/05 07:19:26;;;;;;;13.03;11.20;;;;;;;0.72;100.00;97505.56;4984502;28;20229;-67
2021/01/05 07:21:53;;;;;;;15.00;11.33;;;;;;;0.68;100.00;97508.53;4982499;28;20575;-67
2021/01/05 07:24:21;;;;;;;16.20;13.30;;;;;;;0.46;100.00;97509.28;4976965;28;20470;-67
2021/01/05 07:26:50;;;;;;;15.13;12.23;;;;;;;0.41;100.00;97515.66;4972508;28;20414;-67
2021/01/05 07:29:19;;;;;;;9.97;8.97;;;;;;;0.52;100.00;97514.03;4982549;28;20214;-68
2021/01/05 07:31:47;;;;;;;12.70;10.70;;;;;;;0.55;100.00;97514.63;4976318;28;20206;-67
2021/01/05 07:34:14;;;;;;;13.27;11.80;;;;;;;0.52;100.00;97520.06;4976662;28;20351;-68
2021/01/05 07:36:43;;;;;;;13.20;11.90;;;;;;;0.55;100.00;97522.44;4977225;28;20574;-66
2021/01/05 07:39:15;;;;;;;23.20;13.20;;;;;;;0.55;100.00;97517.22;4974089;28;20235;-66
2021/01/05 07:41:43;;;;;;;15.93;12.57;;;;;;;0.48;100.00;97526.44;4977574;28;20213;-66
2021/01/05 07:44:13;;;;;;;16.00;12.97;;;;;;;0.65;100.00;97525.22;4975008;28;20872;-66
2021/01/05 07:46:40;;;;;;;13.37;12.07;;;;;;;0.51;100.00;97526.22;4980027;28;20232;-66
2021/01/05 07:49:07;;;;;;;15.43;11.53;;;;;;;0.48;100.00;97523.03;4979538;28;20299;-66
2021/01/05 07:51:34;;;;;;;14.67;12.27;;;;;;;0.52;100.00;97522.69;4977595;28;20214;-66
2021/01/05 07:54:01;;;;;;;13.13;11.83;;;;;;;0.45;100.00;97521.47;4977914;28;20226;-66
2021/01/05 07:56:28;;;;;;;12.27;10.50;;;;;;;0.46;100.00;97517.91;4977240;28;20213;-68
2021/01/05 07:58:56;;;;;;;14.27;11.63;;;;;;;0.64;100.00;97528.78;4973353;28;20339;-67
2021/01/05 08:01:30;;;;;;;12.27;10.97;;;;;;;0.60;100.00;97524.72;4981377;28;20471;-66
2021/01/05 08:03:57;;;;;;;12.70;11.50;;;;;;;0.63;100.00;97529.72;4978616;28;20229;-66
2021/01/05 08:06:24;;;;;;;13.60;11.40;;;;;;;0.57;100.00;97520.59;4975945;28;20215;-66
2021/01/05 08:08:51;;;;;;;12.83;10.93;;;;;;;0.46;100.00;97523.13;4983265;28;20201;-66
2021/01/05 08:11:18;;;;;;;13.07;11.87;;;;;;;0.38;100.00;97526.31;4985611;28;20300;-66
2021/01/05 08:13:45;;;;;;;12.33;11.07;;;;;;;0.40;100.00;97526.19;4973955;28;20223;-66
2021/01/05 08:16:13;;;;;;;13.37;11.90;;;;;;;0.35;100.00;97525.69;4976919;28;20217;-66
2021/01/05 08:18:40;;;;;;;11.37;9.67;;;;;;;0.48;100.00;97526.44;4978975;28;20542;-66
2021/01/05 08:21:08;;;;;;;12.87;11.33;;;;;;;0.43;100.00;97528.56;4985662;28;20206;-66
2021/01/05 08:23:35;;;;;;;13.03;11.03;;;;;;;0.44;100.00;97530.22;4978785;28;20252;-66
2021/01/05 08:26:01;;;;;;;11.53;10.40;;;;;;;0.49;100.00;97533.34;4982444;28;20213;-67
2021/01/05 08:28:28;;;;;;;13.17;11.30;;;;;;;0.54;100.00;97533.00;4986949;28;20305;-68
2021/01/05 08:30:55;;;;;;;12.87;10.07;;;;;;;0.51;100.00;97531.44;4969535;28;20209;-67
2021/01/05 08:33:23;;;;;;;12.70;10.33;;;;;;;0.53;100.00;97533.94;4974801;28;20225;-67
2021/01/05 08:35:50;;;;;;;12.27;10.03;;;;;;;0.51;100.00;97533.22;4979655;28;20527;-67
2021/01/05 08:38:17;;;;;;;15.83;12.43;;;;;;;0.51;100.00;97534.03;4982341;28;20229;-68
2021/01/05 08:40:44;;;;;;;11.87;10.67;;;;;;;0.50;100.00;97534.19;4981265;28;20209;-67
2021/01/05 08:43:11;;;;;;;11.87;10.43;;;;;;;0.54;100.00;97540.81;4975202;28;20973;-66
2021/01/05 08:45:40;;;;;;;11.87;9.93;;;;;;;0.68;100.00;97539.81;4974525;28;20201;-65
2021/01/05 08:48:07;;;;;;;10.97;9.97;;;;;;;0.49;100.00;97542.94;4976590;28;20205;-66
2021/01/05 08:50:35;;;;;;;11.30;10.07;;;;;;;0.43;100.00;97546.81;4973525;28;20272;-66
2021/01/05 08:53:04;;;;;;;11.33;9.67;;;;;;;0.35;100.00;97542.16;4977035;28;20241;-66
2021/01/05 08:55:34;;;;;;;12.60;10.83;;;;;;;0.50;100.00;97545.41;4974954;28;20210;-67
2021/01/05 08:58:02;;;;;;;11.50;9.97;;;;;;;0.67;100.00;97551.19;4977487;28;20217;-67
2021/01/05 09:00:30;;;;;;;14.73;11.87;;;;;;;0.53;100.00;97547.81;4976034;28;20198;-67
2021/01/05 09:02:57;;;;;;;12.40;11.10;;;;;;;0.61;100.00;97544.66;4975353;28;20228;-66
2021/01/05 09:05:43;;;;;;;12.13;10.77;;;;;;;0.52;100.00;97548.75;4974948;28;20361;-67
2021/01/05 09:08:10;;;;;;;13.33;10.47;;;;;;;0.72;100.00;97555.13;4974909;28;20546;-68
2021/01/05 09:10:37;;;;;;;12.27;11.07;;;;;;;0.65;100.00;97551.31;4979372;28;20210;-67
2021/01/05 09:13:04;;;;;;;13.43;12.10;;;;;;;0.60;100.00;97556.03;4982904;28;20307;-67
2021/01/05 09:15:31;;;;;;;11.13;9.97;;;;;;;0.46;100.00;97562.22;4984162;28;20682;-67
2021/01/05 09:18:01;;;;;;;14.90;11.67;;;;;;;0.56;100.00;97555.41;4984390;28;20896;-68
2021/01/05 09:20:29;;;;;;;13.50;11.37;;;;;;;0.63;100.00;97554.97;4988489;28;20213;-67
2021/01/05 09:22:56;;;;;;;13.33;9.73;;;;;;;0.57;100.00;97551.88;4983439;28;20233;-68
2021/01/05 09:25:23;;;;;;;11.80;10.33;;;;;;;0.50;100.00;97562.84;4982388;28;20599;-67
2021/01/05 09:27:51;;;;;;;12.17;10.87;;;;;;;0.76;100.00;97560.09;4984852;28;20206;-67
2021/01/05 09:30:19;;;;;;;11.33;10.17;;;;;;;0.70;100.00;97553.59;4993377;28;20675;-67
2021/01/05 09:32:46;;;;;;;12.37;10.97;;;;;;;0.72;100.00;97554.28;4987022;28;20217;-67
2021/01/05 09:35:14;;;;;;;10.80;9.70;;;;;;;0.66;100.00;97554.75;4984201;28;20201;-67
2021/01/05 09:37:43;;;;;;;10.83;9.73;;;;;;;0.83;100.00;97554.34;4987286;28;20202;-68
2021/01/05 09:40:13;;;;;;;11.07;9.97;;;;;;;0.67;100.00;97557.22;4983080;28;20206;-67
2021/01/05 09:42:40;;;;;;;10.50;9.50;;;;;;;0.60;100.00;97553.41;4985435;28;20305;-67
2021/01/05 09:45:08;;;;;;;11.40;10.27;;;;;;;0.54;100.00;97554.69;4981267;28;20706;-67
2021/01/05 09:47:35;;;;;;;12.20;9.77;;;;;;;0.63;100.00;97554.97;4982605;28;20259;-68
2021/01/05 09:50:03;;;;;;;11.63;10.30;;;;;;;0.55;100.00;97552.91;4986782;28;20202;-67
2021/01/05 09:52:32;;;;;;;11.83;8.90;;;;;;;0.72;100.00;97551.69;4981558;28;20202;-67
2021/01/05 09:54:59;;;;;;;10.60;9.60;;;;;;;0.70;100.00;97551.78;4978451;28;20398;-67
2021/01/05 09:57:27;;;;;;;10.37;9.30;;;;;;;0.70;100.00;97550.97;4983793;28;20803;-67
2021/01/05 09:59:54;;;;;;;12.23;11.00;;;;;;;0.64;100.00;97547.03;4977782;28;20210;-67
2021/01/05 10:02:21;;;;;;;14.27;12.83;;;;;;;0.73;100.00;97553.34;4983324;28;20673;-67
2021/01/05 10:04:48;;;;;;;12.20;11.07;;;;;;;0.69;100.00;97546.69;4982043;28;20239;-67
2021/01/05 10:07:16;;;;;;;10.93;9.90;;;;;;;0.69;100.00;97538.88;4990374;28;20218;-67
2021/01/05 10:09:44;;;;;;;10.60;9.60;;;;;;;0.74;100.00;97541.97;4985221;28;20209;-67
2021/01/05 10:12:11;;;;;;;10.33;9.33;;;;;;;0.80;100.00;97538.09;4982379;28;20809;-67
2021/01/05 10:14:39;;;;;;;11.40;10.30;;;;;;;0.72;100.00;97528.22;4977137;28;20466;-66
2021/01/05 10:17:06;;;;;;;10.13;9.13;;;;;;;0.68;100.00;97524.19;4980471;28;20217;-67
2021/01/05 10:19:33;;;;;;;13.60;10.23;;;;;;;0.67;100.00;97515.50;4975564;28;20213;-67
2021/01/05 10:22:00;;;;;;;12.43;11.10;;;;;;;0.81;100.00;97529.31;4985784;28;20591;-67
2021/01/05 10:24:27;;;;;;;11.93;10.80;;;;;;;0.75;100.00;97522.75;4980778;28;20647;-68
2021/01/05 10:26:55;;;;;;;11.80;10.70;;;;;;;0.85;100.00;97525.53;4981548;28;20210;-66
2021/01/05 10:29:23;;;;;;;11.70;10.60;;;;;;;0.88;100.00;97525.31;4983188;28;20673;-68
2021/01/05 10:31:51;;;;;;;10.50;9.50;;;;;;;0.74;100.00;97526.31;4981882;28;20202;-67
2021/01/05 10:34:20;;;;;;;10.57;9.47;;;;;;;0.64;100.00;97527.97;4979078;28;20737;-68
2021/01/05 10:36:51;;;;;;;11.23;10.10;;;;;;;0.87;100.00;97521.03;4979432;28;20198;-67
2021/01/05 10:39:18;;;;;;;11.10;10.07;;;;;;;0.77;100.00;97520.88;4977526;28;20507;-67
2021/01/05 10:41:46;;;;;;;11.13;10.03;;;;;;;0.98;100.00;97525.44;4982129;28;20449;-69
2021/01/05 10:44:15;;;;;;;11.13;9.97;;;;;;;0.97;100.00;97518.56;4977340;28;20236;-70
2021/01/05 10:46:42;;;;;;;11.40;9.93;;;;;;;0.93;100.00;97517.97;4981582;28;20209;-69
2021/01/05 10:49:11;;;;;;;11.17;10.07;;;;;;;1.02;100.00;97521.66;4983958;28;21259;-69
2021/01/05 10:51:45;;;;;;;10.17;9.17;;;;;;;1.03;100.00;97520.72;4979977;28;20460;-69
2021/01/05 10:54:12;;;;;;;9.70;8.90;;;;;;;1.01;100.00;97515.59;4980113;28;20473;-69
2021/01/05 10:56:39;;;;;;;11.10;9.90;;;;;;;0.94;100.00;97510.94;4980165;28;20205;-69
2021/01/05 10:59:07;;;;;;;9.73;8.80;;;;;;;0.85;100.00;97508.09;4983707;28;20304;-68
2021/01/05 11:01:34;;;;;;;10.57;9.57;;;;;;;0.94;100.00;97509.19;4973879;28;20259;-67
2021/01/05 11:04:01;;;;;;;10.00;9.00;;;;;;;0.92;100.00;97518.06;4975603;28;20237;-68
2021/01/05 11:06:37;;;;;;;9.93;8.80;;;;;;;1.05;100.00;97518.81;4977005;28;20237;-67
2021/01/05 11:09:04;;;;;;;10.53;9.60;;;;;;;1.04;100.00;97517.16;4979736;28;20677;-68
2021/01/05 11:11:31;;;;;;;9.90;8.87;;;;;;;0.93;100.00;97520.56;4982549;28;20212;-69
2021/01/05 11:13:58;;;;;;;12.50;9.50;;;;;;;1.17;100.00;97513.63;4980368;28;20229;-69
2021/01/05 11:16:25;;;;;;;9.70;8.87;;;;;;;1.10;100.00;97529.75;4978919;28;20450;-68
2021/01/05 11:18:52;;;;;;;11.20;10.20;;;;;;;1.11;100.00;97515.75;4980292;28;20338;-69
2021/01/05 11:21:20;;;;;;;9.73;8.83;;;;;;;0.95;100.00;97521.28;4975553;28;20222;-68
2021/01/05 11:23:48;;;;;;;11.80;10.60;;;;;;;1.16;100.00;97518.03;4968152;28;20233;-69
2021/01/05 11:26:14;;;;;;;10.90;9.80;;;;;;;1.18;100.00;97513.50;4987177;28;20217;-68
2021/01/05 11:28:51;;;;;;;10.17;9.17;;;;;;;1.36;100.00;97507.81;4987752;28;20775;-68
2021/01/05 11:31:19;;;;;;;10.67;9.67;;;;;;;1.43;100.00;97509.84;4978725;28;20595;-67